sensor_id;sensor_type;location;lat;lon;timestamp;P1;durP1;ratioP1;P2;durP2;ratioP2
2868;SDS011;1442;47.448;8.582;2023-04-19T00:00:05;12.50;;;7.70;;
2868;SDS011;1442;47.448;8.582;2023-04-19T00:02:33;13.15;;;7.38;;
2868;SDS011;1442;47.448;8.582;2023-04-19T00:05:00;12.40;;;8.50;;
2868;SDS011;1442;47.448;8.582;2023-04-19T00:07:27;15.10;;;8.00;;
2868;SDS011;1442;47.448;8.582;2023-04-19T00:09:56;12.65;;;8.38;;
2868;SDS011;1442;47.448;8.582;2023-04-19T00:12:23;13.50;;;7.50;;
2868;SDS011;1442;47.448;8.582;2023-04-19T00:14:50;12.23;;;8.30;;
2868;SDS011;1442;47.448;8.582;2023-04-19T00:17:17;12.30;;;8.43;;
2868;SDS011;1442;47.448;8.582;2023-04-19T00:19:45;10.55;;;8.05;;
2868;SDS011;1442;47.448;8.582;2023-04-19T00:22:12;13.40;;;8.27;;
2868;SDS011;1442;47.448;8.582;2023-04-19T00:24:39;15.65;;;8.80;;
2868;SDS011;1442;47.448;8.582;2023-04-19T00:27:08;13.93;;;9.38;;
2868;SDS011;1442;47.448;8.582;2023-04-19T00:29:35;13.45;;;8.70;;
2868;SDS011;1442;47.448;8.582;2023-04-19T00:32:02;16.30;;;8.50;;
2868;SDS011;1442;47.448;8.582;2023-04-19T00:34:30;14.38;;;8.68;;
2868;SDS011;1442;47.448;8.582;2023-04-19T00:36:57;13.93;;;9.25;;
2868;SDS011;1442;47.448;8.582;2023-04-19T00:39:24;14.13;;;8.82;;
2868;SDS011;1442;47.448;8.582;2023-04-19T00:41:51;13.38;;;8.75;;
2868;SDS011;1442;47.448;8.582;2023-04-19T00:44:20;12.75;;;9.35;;
2868;SDS011;1442;47.448;8.582;2023-04-19T00:46:47;14.27;;;9.48;;
2868;SDS011;1442;47.448;8.582;2023-04-19T00:49:15;11.98;;;8.52;;
2868;SDS011;1442;47.448;8.582;2023-04-19T00:51:42;12.93;;;8.60;;
2868;SDS011;1442;47.448;8.582;2023-04-19T00:54:09;16.45;;;8.73;;
2868;SDS011;1442;47.448;8.582;2023-04-19T00:56:37;11.88;;;8.88;;
2868;SDS011;1442;47.448;8.582;2023-04-19T00:59:04;12.43;;;9.13;;
2868;SDS011;1442;47.448;8.582;2023-04-19T01:01:32;11.32;;;8.63;;
2868;SDS011;1442;47.448;8.582;2023-04-19T01:04:00;12.20;;;8.40;;
2868;SDS011;1442;47.448;8.582;2023-04-19T01:06:27;10.98;;;7.82;;
2868;SDS011;1442;47.448;8.582;2023-04-19T01:08:55;15.77;;;9.77;;
2868;SDS011;1442;47.448;8.582;2023-04-19T01:11:23;13.77;;;9.38;;
2868;SDS011;1442;47.448;8.582;2023-04-19T01:13:50;14.65;;;8.80;;
2868;SDS011;1442;47.448;8.582;2023-04-19T01:16:17;14.38;;;10.02;;
2868;SDS011;1442;47.448;8.582;2023-04-19T01:18:46;15.48;;;9.93;;
2868;SDS011;1442;47.448;8.582;2023-04-19T01:21:13;14.05;;;8.80;;
2868;SDS011;1442;47.448;8.582;2023-04-19T01:23:42;12.55;;;8.68;;
2868;SDS011;1442;47.448;8.582;2023-04-19T01:26:09;12.73;;;8.20;;
2868;SDS011;1442;47.448;8.582;2023-04-19T01:28:37;13.95;;;8.80;;
2868;SDS011;1442;47.448;8.582;2023-04-19T01:31:04;12.73;;;8.52;;
2868;SDS011;1442;47.448;8.582;2023-04-19T01:33:31;13.35;;;8.95;;
2868;SDS011;1442;47.448;8.582;2023-04-19T01:35:58;12.63;;;8.43;;
2868;SDS011;1442;47.448;8.582;2023-04-19T01:38:25;14.25;;;9.38;;
2868;SDS011;1442;47.448;8.582;2023-04-19T01:40:54;16.58;;;9.95;;
2868;SDS011;1442;47.448;8.582;2023-04-19T01:43:21;13.73;;;9.32;;
2868;SDS011;1442;47.448;8.582;2023-04-19T01:45:48;13.60;;;8.77;;
2868;SDS011;1442;47.448;8.582;2023-04-19T01:48:15;14.13;;;9.48;;
2868;SDS011;1442;47.448;8.582;2023-04-19T01:50:43;14.18;;;8.30;;
2868;SDS011;1442;47.448;8.582;2023-04-19T01:53:10;13.60;;;9.30;;
2868;SDS011;1442;47.448;8.582;2023-04-19T01:55:37;13.32;;;9.23;;
2868;SDS011;1442;47.448;8.582;2023-04-19T01:58:05;16.95;;;10.90;;
2868;SDS011;1442;47.448;8.582;2023-04-19T02:00:33;13.70;;;9.43;;
2868;SDS011;1442;47.448;8.582;2023-04-19T02:03:00;14.18;;;8.98;;
2868;SDS011;1442;47.448;8.582;2023-04-19T02:05:28;14.50;;;8.75;;
2868;SDS011;1442;47.448;8.582;2023-04-19T02:07:55;15.18;;;9.07;;
2868;SDS011;1442;47.448;8.582;2023-04-19T02:10:22;13.32;;;9.13;;
2868;SDS011;1442;47.448;8.582;2023-04-19T02:12:49;13.40;;;9.00;;
2868;SDS011;1442;47.448;8.582;2023-04-19T02:15:17;13.25;;;9.43;;
2868;SDS011;1442;47.448;8.582;2023-04-19T02:17:45;15.25;;;9.27;;
2868;SDS011;1442;47.448;8.582;2023-04-19T02:20:12;12.13;;;8.68;;
2868;SDS011;1442;47.448;8.582;2023-04-19T02:22:39;13.70;;;8.57;;
2868;SDS011;1442;47.448;8.582;2023-04-19T02:25:07;11.88;;;8.85;;
2868;SDS011;1442;47.448;8.582;2023-04-19T02:27:35;18.02;;;9.02;;
2868;SDS011;1442;47.448;8.582;2023-04-19T02:30:02;13.25;;;8.23;;
2868;SDS011;1442;47.448;8.582;2023-04-19T02:32:30;14.77;;;9.25;;
2868;SDS011;1442;47.448;8.582;2023-04-19T02:34:58;14.20;;;9.48;;
2868;SDS011;1442;47.448;8.582;2023-04-19T02:37:25;15.85;;;9.73;;
2868;SDS011;1442;47.448;8.582;2023-04-19T02:39:52;12.73;;;8.68;;
2868;SDS011;1442;47.448;8.582;2023-04-19T02:42:19;13.23;;;8.85;;
2868;SDS011;1442;47.448;8.582;2023-04-19T02:44:46;13.23;;;9.25;;
2868;SDS011;1442;47.448;8.582;2023-04-19T02:47:13;14.80;;;9.35;;
2868;SDS011;1442;47.448;8.582;2023-04-19T02:49:41;13.82;;;8.90;;
2868;SDS011;1442;47.448;8.582;2023-04-19T02:52:09;11.90;;;8.90;;
2868;SDS011;1442;47.448;8.582;2023-04-19T02:54:36;15.13;;;9.40;;
2868;SDS011;1442;47.448;8.582;2023-04-19T02:57:03;14.38;;;8.85;;
2868;SDS011;1442;47.448;8.582;2023-04-19T02:59:30;12.68;;;8.93;;
2868;SDS011;1442;47.448;8.582;2023-04-19T03:01:57;14.43;;;9.23;;
2868;SDS011;1442;47.448;8.582;2023-04-19T03:04:24;12.30;;;8.30;;
2868;SDS011;1442;47.448;8.582;2023-04-19T03:06:54;11.80;;;8.70;;
2868;SDS011;1442;47.448;8.582;2023-04-19T03:09:21;13.82;;;9.23;;
2868;SDS011;1442;47.448;8.582;2023-04-19T03:11:48;13.52;;;8.68;;
2868;SDS011;1442;47.448;8.582;2023-04-19T03:14:15;16.67;;;9.25;;
2868;SDS011;1442;47.448;8.582;2023-04-19T03:16:42;11.98;;;8.73;;
2868;SDS011;1442;47.448;8.582;2023-04-19T03:19:10;14.82;;;9.05;;
2868;SDS011;1442;47.448;8.582;2023-04-19T03:21:37;23.33;;;10.10;;
2868;SDS011;1442;47.448;8.582;2023-04-19T03:24:05;13.23;;;9.07;;
2868;SDS011;1442;47.448;8.582;2023-04-19T03:26:33;13.23;;;9.70;;
2868;SDS011;1442;47.448;8.582;2023-04-19T03:29:00;13.85;;;9.10;;
2868;SDS011;1442;47.448;8.582;2023-04-19T03:31:27;12.65;;;8.35;;
2868;SDS011;1442;47.448;8.582;2023-04-19T03:33:54;11.60;;;8.30;;
2868;SDS011;1442;47.448;8.582;2023-04-19T03:36:22;15.52;;;9.57;;
2868;SDS011;1442;47.448;8.582;2023-04-19T03:38:49;15.07;;;10.07;;
2868;SDS011;1442;47.448;8.582;2023-04-19T03:41:21;15.30;;;8.48;;
2868;SDS011;1442;47.448;8.582;2023-04-19T03:43:49;13.73;;;8.90;;
2868;SDS011;1442;47.448;8.582;2023-04-19T03:46:16;13.57;;;9.55;;
2868;SDS011;1442;47.448;8.582;2023-04-19T03:48:43;12.55;;;8.38;;
2868;SDS011;1442;47.448;8.582;2023-04-19T03:51:10;14.55;;;8.95;;
2868;SDS011;1442;47.448;8.582;2023-04-19T03:53:40;14.15;;;9.15;;
2868;SDS011;1442;47.448;8.582;2023-04-19T03:56:07;14.15;;;8.85;;
2868;SDS011;1442;47.448;8.582;2023-04-19T03:58:35;13.32;;;9.15;;
2868;SDS011;1442;47.448;8.582;2023-04-19T04:01:03;12.10;;;8.32;;
2868;SDS011;1442;47.448;8.582;2023-04-19T04:03:30;10.70;;;7.88;;
2868;SDS011;1442;47.448;8.582;2023-04-19T04:05:57;12.95;;;8.68;;
2868;SDS011;1442;47.448;8.582;2023-04-19T04:08:25;10.85;;;8.73;;
2868;SDS011;1442;47.448;8.582;2023-04-19T04:10:52;14.73;;;8.60;;
2868;SDS011;1442;47.448;8.582;2023-04-19T04:13:20;14.25;;;8.75;;
2868;SDS011;1442;47.448;8.582;2023-04-19T04:15:48;12.23;;;8.80;;
2868;SDS011;1442;47.448;8.582;2023-04-19T04:18:15;11.88;;;8.93;;
2868;SDS011;1442;47.448;8.582;2023-04-19T04:20:43;10.82;;;7.88;;
2868;SDS011;1442;47.448;8.582;2023-04-19T04:23:10;11.50;;;8.43;;
2868;SDS011;1442;47.448;8.582;2023-04-19T04:25:38;16.90;;;10.25;;
2868;SDS011;1442;47.448;8.582;2023-04-19T04:28:06;10.85;;;8.23;;
2868;SDS011;1442;47.448;8.582;2023-04-19T04:30:34;13.18;;;8.10;;
2868;SDS011;1442;47.448;8.582;2023-04-19T04:33:02;13.75;;;8.70;;
2868;SDS011;1442;47.448;8.582;2023-04-19T04:35:30;15.40;;;8.95;;
2868;SDS011;1442;47.448;8.582;2023-04-19T04:37:58;15.68;;;9.23;;
2868;SDS011;1442;47.448;8.582;2023-04-19T04:40:27;11.68;;;8.32;;
2868;SDS011;1442;47.448;8.582;2023-04-19T04:42:54;13.65;;;9.07;;
2868;SDS011;1442;47.448;8.582;2023-04-19T04:45:21;11.70;;;8.20;;
2868;SDS011;1442;47.448;8.582;2023-04-19T04:47:49;15.38;;;9.45;;
2868;SDS011;1442;47.448;8.582;2023-04-19T04:50:17;11.23;;;8.63;;
2868;SDS011;1442;47.448;8.582;2023-04-19T04:52:44;12.40;;;8.90;;
2868;SDS011;1442;47.448;8.582;2023-04-19T04:55:11;12.77;;;8.73;;
2868;SDS011;1442;47.448;8.582;2023-04-19T04:57:38;12.80;;;9.60;;
2868;SDS011;1442;47.448;8.582;2023-04-19T05:00:06;12.50;;;8.20;;
2868;SDS011;1442;47.448;8.582;2023-04-19T05:02:33;10.45;;;7.55;;
2868;SDS011;1442;47.448;8.582;2023-04-19T05:05:01;12.32;;;8.90;;
2868;SDS011;1442;47.448;8.582;2023-04-19T05:07:30;11.05;;;8.20;;
2868;SDS011;1442;47.448;8.582;2023-04-19T05:09:57;12.20;;;8.13;;
2868;SDS011;1442;47.448;8.582;2023-04-19T05:12:24;15.52;;;9.00;;
2868;SDS011;1442;47.448;8.582;2023-04-19T05:14:51;14.65;;;8.70;;
2868;SDS011;1442;47.448;8.582;2023-04-19T05:17:18;12.20;;;8.43;;
2868;SDS011;1442;47.448;8.582;2023-04-19T05:19:45;12.25;;;8.75;;
2868;SDS011;1442;47.448;8.582;2023-04-19T05:22:13;14.07;;;9.10;;
2868;SDS011;1442;47.448;8.582;2023-04-19T05:24:41;11.38;;;8.55;;
2868;SDS011;1442;47.448;8.582;2023-04-19T05:27:09;13.45;;;9.27;;
2868;SDS011;1442;47.448;8.582;2023-04-19T05:29:36;14.27;;;8.73;;
2868;SDS011;1442;47.448;8.582;2023-04-19T05:32:03;14.80;;;8.93;;
2868;SDS011;1442;47.448;8.582;2023-04-19T05:34:31;14.30;;;9.15;;
2868;SDS011;1442;47.448;8.582;2023-04-19T05:36:58;11.80;;;8.85;;
2868;SDS011;1442;47.448;8.582;2023-04-19T05:39:26;11.38;;;7.47;;
2868;SDS011;1442;47.448;8.582;2023-04-19T05:41:54;13.70;;;8.43;;
2868;SDS011;1442;47.448;8.582;2023-04-19T05:44:21;15.40;;;9.38;;
2868;SDS011;1442;47.448;8.582;2023-04-19T05:46:49;10.85;;;7.75;;
2868;SDS011;1442;47.448;8.582;2023-04-19T05:49:16;13.10;;;8.80;;
2868;SDS011;1442;47.448;8.582;2023-04-19T05:51:43;10.25;;;7.63;;
2868;SDS011;1442;47.448;8.582;2023-04-19T05:54:10;14.00;;;8.57;;
2868;SDS011;1442;47.448;8.582;2023-04-19T05:56:38;11.20;;;8.55;;
2868;SDS011;1442;47.448;8.582;2023-04-19T05:59:07;12.85;;;7.75;;
2868;SDS011;1442;47.448;8.582;2023-04-19T06:01:35;11.68;;;8.50;;
2868;SDS011;1442;47.448;8.582;2023-04-19T06:04:03;17.45;;;8.27;;
2868;SDS011;1442;47.448;8.582;2023-04-19T06:06:31;11.73;;;8.13;;
2868;SDS011;1442;47.448;8.582;2023-04-19T06:08:58;10.85;;;7.97;;
2868;SDS011;1442;47.448;8.582;2023-04-19T06:11:25;12.48;;;7.43;;
2868;SDS011;1442;47.448;8.582;2023-04-19T06:13:52;9.35;;;7.40;;
2868;SDS011;1442;47.448;8.582;2023-04-19T06:16:21;14.10;;;7.72;;
2868;SDS011;1442;47.448;8.582;2023-04-19T06:18:48;14.48;;;7.90;;
2868;SDS011;1442;47.448;8.582;2023-04-19T06:21:15;12.43;;;8.20;;
2868;SDS011;1442;47.448;8.582;2023-04-19T06:23:42;10.25;;;7.97;;
2868;SDS011;1442;47.448;8.582;2023-04-19T06:26:09;11.27;;;8.00;;
2868;SDS011;1442;47.448;8.582;2023-04-19T06:28:36;11.15;;;7.13;;
2868;SDS011;1442;47.448;8.582;2023-04-19T06:31:04;10.10;;;7.43;;
2868;SDS011;1442;47.448;8.582;2023-04-19T06:33:32;10.63;;;7.00;;
2868;SDS011;1442;47.448;8.582;2023-04-19T06:35:59;12.75;;;7.85;;
2868;SDS011;1442;47.448;8.582;2023-04-19T06:38:26;13.07;;;7.50;;
2868;SDS011;1442;47.448;8.582;2023-04-19T06:40:53;10.05;;;6.82;;
2868;SDS011;1442;47.448;8.582;2023-04-19T06:43:21;11.73;;;6.40;;
2868;SDS011;1442;47.448;8.582;2023-04-19T06:45:48;13.75;;;6.97;;
2868;SDS011;1442;47.448;8.582;2023-04-19T06:48:15;13.40;;;7.85;;
2868;SDS011;1442;47.448;8.582;2023-04-19T06:50:43;17.27;;;7.80;;
2868;SDS011;1442;47.448;8.582;2023-04-19T06:53:11;12.18;;;6.90;;
2868;SDS011;1442;47.448;8.582;2023-04-19T06:55:38;10.57;;;6.95;;
2868;SDS011;1442;47.448;8.582;2023-04-19T06:58:05;11.32;;;7.63;;
2868;SDS011;1442;47.448;8.582;2023-04-19T07:00:34;10.65;;;7.38;;
2868;SDS011;1442;47.448;8.582;2023-04-19T07:03:01;11.13;;;7.78;;
2868;SDS011;1442;47.448;8.582;2023-04-19T07:05:29;11.95;;;7.95;;
2868;SDS011;1442;47.448;8.582;2023-04-19T07:07:58;11.45;;;8.23;;
2868;SDS011;1442;47.448;8.582;2023-04-19T07:10:25;10.43;;;7.90;;
2868;SDS011;1442;47.448;8.582;2023-04-19T07:12:52;12.43;;;7.60;;
2868;SDS011;1442;47.448;8.582;2023-04-19T07:15:19;15.65;;;8.00;;
2868;SDS011;1442;47.448;8.582;2023-04-19T07:17:46;10.85;;;7.57;;
2868;SDS011;1442;47.448;8.582;2023-04-19T07:20:14;12.27;;;7.15;;
2868;SDS011;1442;47.448;8.582;2023-04-19T07:22:41;10.88;;;7.30;;
2868;SDS011;1442;47.448;8.582;2023-04-19T07:25:10;13.73;;;7.80;;
2868;SDS011;1442;47.448;8.582;2023-04-19T07:27:37;12.85;;;8.77;;
2868;SDS011;1442;47.448;8.582;2023-04-19T07:30:05;13.48;;;7.60;;
2868;SDS011;1442;47.448;8.582;2023-04-19T07:32:32;9.77;;;7.15;;
2868;SDS011;1442;47.448;8.582;2023-04-19T07:35:00;10.73;;;7.68;;
2868;SDS011;1442;47.448;8.582;2023-04-19T07:37:27;10.43;;;7.72;;
2868;SDS011;1442;47.448;8.582;2023-04-19T07:39:54;11.77;;;7.97;;
2868;SDS011;1442;47.448;8.582;2023-04-19T07:42:23;11.50;;;7.30;;
2868;SDS011;1442;47.448;8.582;2023-04-19T07:44:50;11.40;;;7.47;;
2868;SDS011;1442;47.448;8.582;2023-04-19T07:47:17;11.23;;;6.68;;
2868;SDS011;1442;47.448;8.582;2023-04-19T07:49:44;11.27;;;7.38;;
2868;SDS011;1442;47.448;8.582;2023-04-19T07:52:11;11.13;;;7.68;;
2868;SDS011;1442;47.448;8.582;2023-04-19T07:54:38;10.05;;;7.20;;
2868;SDS011;1442;47.448;8.582;2023-04-19T07:57:06;10.88;;;7.78;;
2868;SDS011;1442;47.448;8.582;2023-04-19T07:59:34;14.18;;;7.72;;
2868;SDS011;1442;47.448;8.582;2023-04-19T08:02:01;17.13;;;8.63;;
2868;SDS011;1442;47.448;8.582;2023-04-19T08:04:31;9.32;;;6.80;;
2868;SDS011;1442;47.448;8.582;2023-04-19T08:06:58;10.80;;;7.35;;
2868;SDS011;1442;47.448;8.582;2023-04-19T08:09:26;11.07;;;6.85;;
2868;SDS011;1442;47.448;8.582;2023-04-19T08:11:53;10.98;;;6.55;;
2868;SDS011;1442;47.448;8.582;2023-04-19T08:14:21;21.70;;;7.60;;
2868;SDS011;1442;47.448;8.582;2023-04-19T08:16:50;10.32;;;6.82;;
2868;SDS011;1442;47.448;8.582;2023-04-19T08:19:17;10.73;;;6.65;;
2868;SDS011;1442;47.448;8.582;2023-04-19T08:21:44;10.82;;;7.05;;
2868;SDS011;1442;47.448;8.582;2023-04-19T08:24:12;10.85;;;7.07;;
2868;SDS011;1442;47.448;8.582;2023-04-19T08:26:39;16.42;;;7.68;;
2868;SDS011;1442;47.448;8.582;2023-04-19T08:29:06;9.30;;;6.90;;
2868;SDS011;1442;47.448;8.582;2023-04-19T08:31:33;10.30;;;7.68;;
2868;SDS011;1442;47.448;8.582;2023-04-19T08:34:02;9.52;;;6.47;;
2868;SDS011;1442;47.448;8.582;2023-04-19T08:36:29;13.77;;;7.05;;
2868;SDS011;1442;47.448;8.582;2023-04-19T08:38:56;12.07;;;7.38;;
2868;SDS011;1442;47.448;8.582;2023-04-19T08:41:23;10.82;;;7.43;;
2868;SDS011;1442;47.448;8.582;2023-04-19T08:43:50;8.07;;;6.63;;
2868;SDS011;1442;47.448;8.582;2023-04-19T08:46:18;12.00;;;6.68;;
2868;SDS011;1442;47.448;8.582;2023-04-19T08:48:45;10.90;;;7.07;;
2868;SDS011;1442;47.448;8.582;2023-04-19T08:51:17;13.02;;;7.93;;
2868;SDS011;1442;47.448;8.582;2023-04-19T08:53:44;10.98;;;7.57;;
2868;SDS011;1442;47.448;8.582;2023-04-19T08:56:12;14.98;;;7.32;;
2868;SDS011;1442;47.448;8.582;2023-04-19T08:58:39;9.43;;;6.15;;
2868;SDS011;1442;47.448;8.582;2023-04-19T09:01:07;10.57;;;7.10;;
2868;SDS011;1442;47.448;8.582;2023-04-19T09:03:35;10.77;;;7.45;;
2868;SDS011;1442;47.448;8.582;2023-04-19T09:06:09;9.40;;;6.85;;
2868;SDS011;1442;47.448;8.582;2023-04-19T09:08:38;9.00;;;7.05;;
2868;SDS011;1442;47.448;8.582;2023-04-19T09:11:05;11.80;;;7.35;;
2868;SDS011;1442;47.448;8.582;2023-04-19T09:13:33;13.05;;;7.43;;
2868;SDS011;1442;47.448;8.582;2023-04-19T09:16:02;8.95;;;6.47;;
2868;SDS011;1442;47.448;8.582;2023-04-19T09:18:31;11.15;;;6.55;;
2868;SDS011;1442;47.448;8.582;2023-04-19T09:20:59;10.45;;;6.57;;
2868;SDS011;1442;47.448;8.582;2023-04-19T09:23:26;8.95;;;6.78;;
2868;SDS011;1442;47.448;8.582;2023-04-19T09:25:55;12.10;;;7.10;;
2868;SDS011;1442;47.448;8.582;2023-04-19T09:28:24;10.45;;;7.28;;
2868;SDS011;1442;47.448;8.582;2023-04-19T09:30:52;9.55;;;6.53;;
2868;SDS011;1442;47.448;8.582;2023-04-19T09:33:32;10.18;;;7.10;;
2868;SDS011;1442;47.448;8.582;2023-04-19T09:36:00;13.00;;;6.95;;
2868;SDS011;1442;47.448;8.582;2023-04-19T09:38:27;10.23;;;7.47;;
2868;SDS011;1442;47.448;8.582;2023-04-19T09:41:06;9.15;;;6.57;;
2868;SDS011;1442;47.448;8.582;2023-04-19T09:43:34;11.13;;;7.85;;
2868;SDS011;1442;47.448;8.582;2023-04-19T09:46:01;9.90;;;6.80;;
2868;SDS011;1442;47.448;8.582;2023-04-19T09:48:28;8.35;;;6.30;;
2868;SDS011;1442;47.448;8.582;2023-04-19T09:50:56;9.55;;;6.32;;
2868;SDS011;1442;47.448;8.582;2023-04-19T09:53:24;8.73;;;6.32;;
2868;SDS011;1442;47.448;8.582;2023-04-19T09:55:51;11.10;;;6.72;;
2868;SDS011;1442;47.448;8.582;2023-04-19T09:58:20;11.55;;;6.72;;
2868;SDS011;1442;47.448;8.582;2023-04-19T10:00:47;8.50;;;5.95;;
2868;SDS011;1442;47.448;8.582;2023-04-19T10:03:16;13.85;;;6.72;;
2868;SDS011;1442;47.448;8.582;2023-04-19T10:05:44;7.80;;;6.30;;
2868;SDS011;1442;47.448;8.582;2023-04-19T10:08:11;14.23;;;6.82;;
2868;SDS011;1442;47.448;8.582;2023-04-19T10:10:39;8.85;;;6.00;;
2868;SDS011;1442;47.448;8.582;2023-04-19T10:13:07;9.43;;;7.03;;
2868;SDS011;1442;47.448;8.582;2023-04-19T10:15:36;11.48;;;6.93;;
2868;SDS011;1442;47.448;8.582;2023-04-19T10:18:03;12.02;;;6.30;;
2868;SDS011;1442;47.448;8.582;2023-04-19T10:20:31;12.70;;;7.05;;
2868;SDS011;1442;47.448;8.582;2023-04-19T10:23:00;9.52;;;6.75;;
2868;SDS011;1442;47.448;8.582;2023-04-19T10:25:28;13.15;;;7.22;;
2868;SDS011;1442;47.448;8.582;2023-04-19T10:27:56;9.18;;;6.32;;
2868;SDS011;1442;47.448;8.582;2023-04-19T10:30:24;10.40;;;7.10;;
2868;SDS011;1442;47.448;8.582;2023-04-19T10:32:54;11.82;;;7.70;;
2868;SDS011;1442;47.448;8.582;2023-04-19T10:35:21;10.65;;;7.80;;
2868;SDS011;1442;47.448;8.582;2023-04-19T10:38:01;14.57;;;8.63;;
2868;SDS011;1442;47.448;8.582;2023-04-19T10:43:15;9.23;;;6.85;;
2868;SDS011;1442;47.448;8.582;2023-04-19T10:45:43;14.05;;;8.25;;
2868;SDS011;1442;47.448;8.582;2023-04-19T10:50:58;10.18;;;7.30;;
2868;SDS011;1442;47.448;8.582;2023-04-19T10:53:42;10.60;;;6.47;;
2868;SDS011;1442;47.448;8.582;2023-04-19T10:56:09;9.95;;;7.35;;
2868;SDS011;1442;47.448;8.582;2023-04-19T11:01:31;11.00;;;6.95;;
2868;SDS011;1442;47.448;8.582;2023-04-19T11:03:58;10.75;;;6.90;;
2868;SDS011;1442;47.448;8.582;2023-04-19T11:06:27;9.63;;;6.90;;
2868;SDS011;1442;47.448;8.582;2023-04-19T11:08:54;10.18;;;6.15;;
2868;SDS011;1442;47.448;8.582;2023-04-19T11:11:22;11.05;;;6.70;;
2868;SDS011;1442;47.448;8.582;2023-04-19T11:13:50;9.95;;;7.15;;
2868;SDS011;1442;47.448;8.582;2023-04-19T11:16:17;9.82;;;6.65;;
2868;SDS011;1442;47.448;8.582;2023-04-19T11:18:44;10.20;;;6.47;;
2868;SDS011;1442;47.448;8.582;2023-04-19T11:21:11;9.63;;;6.03;;
2868;SDS011;1442;47.448;8.582;2023-04-19T11:23:40;8.60;;;6.28;;
2868;SDS011;1442;47.448;8.582;2023-04-19T11:26:09;18.95;;;6.80;;
2868;SDS011;1442;47.448;8.582;2023-04-19T11:28:36;11.07;;;7.20;;
2868;SDS011;1442;47.448;8.582;2023-04-19T11:31:03;12.30;;;6.60;;
2868;SDS011;1442;47.448;8.582;2023-04-19T11:33:32;8.43;;;6.28;;
2868;SDS011;1442;47.448;8.582;2023-04-19T11:35:59;8.88;;;5.55;;
2868;SDS011;1442;47.448;8.582;2023-04-19T11:38:26;13.20;;;6.15;;
2868;SDS011;1442;47.448;8.582;2023-04-19T11:40:58;8.88;;;6.25;;
2868;SDS011;1442;47.448;8.582;2023-04-19T11:43:31;15.18;;;6.95;;
2868;SDS011;1442;47.448;8.582;2023-04-19T11:46:03;8.63;;;5.95;;
2868;SDS011;1442;47.448;8.582;2023-04-19T11:48:31;9.63;;;6.28;;
2868;SDS011;1442;47.448;8.582;2023-04-19T11:50:58;9.95;;;6.43;;
2868;SDS011;1442;47.448;8.582;2023-04-19T11:53:26;9.40;;;6.85;;
2868;SDS011;1442;47.448;8.582;2023-04-19T11:55:54;8.32;;;6.35;;
2868;SDS011;1442;47.448;8.582;2023-04-19T11:58:24;8.07;;;6.25;;
2868;SDS011;1442;47.448;8.582;2023-04-19T12:00:53;7.78;;;5.90;;
2868;SDS011;1442;47.448;8.582;2023-04-19T12:03:20;8.13;;;5.80;;
2868;SDS011;1442;47.448;8.582;2023-04-19T12:05:52;8.43;;;6.78;;
2868;SDS011;1442;47.448;8.582;2023-04-19T12:08:28;8.07;;;6.03;;
2868;SDS011;1442;47.448;8.582;2023-04-19T12:10:56;10.25;;;5.85;;
2868;SDS011;1442;47.448;8.582;2023-04-19T12:13:24;9.68;;;5.28;;
2868;SDS011;1442;47.448;8.582;2023-04-19T12:15:52;8.57;;;5.72;;
2868;SDS011;1442;47.448;8.582;2023-04-19T12:18:19;10.57;;;6.50;;
2868;SDS011;1442;47.448;8.582;2023-04-19T12:20:46;12.65;;;7.40;;
2868;SDS011;1442;47.448;8.582;2023-04-19T12:23:14;11.43;;;6.10;;
2868;SDS011;1442;47.448;8.582;2023-04-19T12:25:42;9.18;;;6.65;;
2868;SDS011;1442;47.448;8.582;2023-04-19T12:28:10;8.68;;;6.47;;
2868;SDS011;1442;47.448;8.582;2023-04-19T12:30:38;11.95;;;6.75;;
2868;SDS011;1442;47.448;8.582;2023-04-19T12:33:05;9.13;;;6.60;;
2868;SDS011;1442;47.448;8.582;2023-04-19T12:35:33;9.68;;;7.50;;
2868;SDS011;1442;47.448;8.582;2023-04-19T12:38:01;10.55;;;6.97;;
2868;SDS011;1442;47.448;8.582;2023-04-19T12:40:28;9.13;;;6.47;;
2868;SDS011;1442;47.448;8.582;2023-04-19T12:42:56;9.48;;;6.88;;
2868;SDS011;1442;47.448;8.582;2023-04-19T12:45:24;9.07;;;7.13;;
2868;SDS011;1442;47.448;8.582;2023-04-19T12:47:53;11.02;;;7.50;;
2868;SDS011;1442;47.448;8.582;2023-04-19T12:50:20;10.48;;;7.25;;
2868;SDS011;1442;47.448;8.582;2023-04-19T12:52:47;12.75;;;8.40;;
2868;SDS011;1442;47.448;8.582;2023-04-19T12:55:15;12.85;;;8.38;;
2868;SDS011;1442;47.448;8.582;2023-04-19T12:57:43;13.02;;;8.00;;
2868;SDS011;1442;47.448;8.582;2023-04-19T13:00:10;12.75;;;7.18;;
2868;SDS011;1442;47.448;8.582;2023-04-19T13:02:37;10.32;;;7.18;;
2868;SDS011;1442;47.448;8.582;2023-04-19T13:05:06;9.60;;;7.22;;
2868;SDS011;1442;47.448;8.582;2023-04-19T13:07:33;15.25;;;7.75;;
2868;SDS011;1442;47.448;8.582;2023-04-19T13:10:00;10.73;;;7.40;;
2868;SDS011;1442;47.448;8.582;2023-04-19T13:12:28;9.32;;;7.25;;
2868;SDS011;1442;47.448;8.582;2023-04-19T13:14:55;10.75;;;7.68;;
2868;SDS011;1442;47.448;8.582;2023-04-19T13:17:22;12.05;;;6.95;;
2868;SDS011;1442;47.448;8.582;2023-04-19T13:19:49;11.10;;;7.90;;
2868;SDS011;1442;47.448;8.582;2023-04-19T13:22:18;10.32;;;7.78;;
2868;SDS011;1442;47.448;8.582;2023-04-19T13:24:45;10.65;;;7.30;;
2868;SDS011;1442;47.448;8.582;2023-04-19T13:27:12;10.35;;;7.70;;
2868;SDS011;1442;47.448;8.582;2023-04-19T13:29:40;10.88;;;7.60;;
2868;SDS011;1442;47.448;8.582;2023-04-19T13:32:07;10.63;;;7.18;;
2868;SDS011;1442;47.448;8.582;2023-04-19T13:34:36;8.60;;;6.70;;
2868;SDS011;1442;47.448;8.582;2023-04-19T13:37:04;10.98;;;8.15;;
2868;SDS011;1442;47.448;8.582;2023-04-19T13:39:32;16.25;;;7.28;;
2868;SDS011;1442;47.448;8.582;2023-04-19T13:42:00;11.68;;;7.40;;
2868;SDS011;1442;47.448;8.582;2023-04-19T13:44:27;11.00;;;7.03;;
2868;SDS011;1442;47.448;8.582;2023-04-19T13:46:54;7.90;;;6.63;;
2868;SDS011;1442;47.448;8.582;2023-04-19T13:49:22;8.88;;;6.65;;
2868;SDS011;1442;47.448;8.582;2023-04-19T13:51:49;11.30;;;8.00;;
2868;SDS011;1442;47.448;8.582;2023-04-19T13:54:16;9.88;;;6.53;;
2868;SDS011;1442;47.448;8.582;2023-04-19T13:56:44;11.02;;;6.60;;
2868;SDS011;1442;47.448;8.582;2023-04-19T13:59:12;10.70;;;6.20;;
2868;SDS011;1442;47.448;8.582;2023-04-19T14:01:39;8.30;;;5.82;;
2868;SDS011;1442;47.448;8.582;2023-04-19T14:04:06;11.82;;;6.80;;
2868;SDS011;1442;47.448;8.582;2023-04-19T14:06:33;9.00;;;6.03;;
2868;SDS011;1442;47.448;8.582;2023-04-19T14:09:00;11.32;;;6.43;;
2868;SDS011;1442;47.448;8.582;2023-04-19T14:11:28;7.30;;;5.00;;
2868;SDS011;1442;47.448;8.582;2023-04-19T14:13:56;12.02;;;5.25;;
2868;SDS011;1442;47.448;8.582;2023-04-19T14:16:23;6.75;;;5.05;;
2868;SDS011;1442;47.448;8.582;2023-04-19T14:18:51;6.68;;;4.82;;
2868;SDS011;1442;47.448;8.582;2023-04-19T14:21:18;7.45;;;5.32;;
2868;SDS011;1442;47.448;8.582;2023-04-19T14:23:45;8.48;;;5.43;;
2868;SDS011;1442;47.448;8.582;2023-04-19T14:26:12;7.97;;;5.15;;
2868;SDS011;1442;47.448;8.582;2023-04-19T14:28:40;15.40;;;6.55;;
2868;SDS011;1442;47.448;8.582;2023-04-19T14:31:08;7.30;;;4.80;;
2868;SDS011;1442;47.448;8.582;2023-04-19T14:33:35;7.10;;;4.80;;
2868;SDS011;1442;47.448;8.582;2023-04-19T14:36:02;10.85;;;4.68;;
2868;SDS011;1442;47.448;8.582;2023-04-19T14:38:30;13.38;;;4.90;;
2868;SDS011;1442;47.448;8.582;2023-04-19T14:40:57;7.93;;;4.43;;
2868;SDS011;1442;47.448;8.582;2023-04-19T14:43:25;7.28;;;4.85;;
2868;SDS011;1442;47.448;8.582;2023-04-19T14:45:52;14.20;;;6.18;;
2868;SDS011;1442;47.448;8.582;2023-04-19T14:48:20;6.70;;;4.82;;
2868;SDS011;1442;47.448;8.582;2023-04-19T14:50:47;7.72;;;4.60;;
2868;SDS011;1442;47.448;8.582;2023-04-19T14:53:15;7.32;;;5.05;;
2868;SDS011;1442;47.448;8.582;2023-04-19T14:55:42;13.38;;;5.30;;
2868;SDS011;1442;47.448;8.582;2023-04-19T14:58:09;6.60;;;5.03;;
2868;SDS011;1442;47.448;8.582;2023-04-19T15:00:36;9.00;;;5.40;;
2868;SDS011;1442;47.448;8.582;2023-04-19T15:03:03;8.60;;;5.38;;
2868;SDS011;1442;47.448;8.582;2023-04-19T15:05:32;6.03;;;4.57;;
2868;SDS011;1442;47.448;8.582;2023-04-19T15:08:00;6.78;;;5.15;;
2868;SDS011;1442;47.448;8.582;2023-04-19T15:10:27;7.00;;;5.07;;
2868;SDS011;1442;47.448;8.582;2023-04-19T15:12:54;9.93;;;4.70;;
2868;SDS011;1442;47.448;8.582;2023-04-19T15:15:22;7.28;;;5.32;;